sensor_id;sensor_type;location;lat;lon;timestamp;temperature;humidity
23385;DHT22;11865;45.394;10.978;2022-11-20T00:01:18;8.80;99.90
23385;DHT22;11865;45.394;10.978;2022-11-20T00:03:46;8.40;99.90
23385;DHT22;11865;45.394;10.978;2022-11-20T00:06:15;8.20;99.90
23385;DHT22;11865;45.394;10.978;2022-11-20T00:08:43;8.70;99.90
23385;DHT22;11865;45.394;10.978;2022-11-20T00:11:16;8.80;99.90
23385;DHT22;11865;45.394;10.978;2022-11-20T00:13:44;9.10;99.90
23385;DHT22;11865;45.394;10.978;2022-11-20T00:16:15;8.90;99.90
23385;DHT22;11865;45.394;10.978;2022-11-20T00:18:43;8.80;99.90
23385;DHT22;11865;45.394;10.978;2022-11-20T00:23:43;8.30;99.90
23385;DHT22;11865;45.394;10.978;2022-11-20T00:26:12;8.10;99.90
23385;DHT22;11865;45.394;10.978;2022-11-20T00:28:42;8.20;99.90
23385;DHT22;11865;45.394;10.978;2022-11-20T00:31:14;8.60;99.90
23385;DHT22;11865;45.394;10.978;2022-11-20T00:33:42;8.80;99.90
23385;DHT22;11865;45.394;10.978;2022-11-20T00:36:14;8.90;99.90
23385;DHT22;11865;45.394;10.978;2022-11-20T00:38:42;8.90;99.90
23385;DHT22;11865;45.394;10.978;2022-11-20T00:41:12;8.80;99.90
23385;DHT22;11865;45.394;10.978;2022-11-20T00:43:41;8.80;99.90
23385;DHT22;11865;45.394;10.978;2022-11-20T00:46:15;8.80;99.90
23385;DHT22;11865;45.394;10.978;2022-11-20T00:48:44;8.70;99.90
23385;DHT22;11865;45.394;10.978;2022-11-20T00:51:14;8.60;99.90
23385;DHT22;11865;45.394;10.978;2022-11-20T00:53:42;8.60;99.90
23385;DHT22;11865;45.394;10.978;2022-11-20T00:56:12;8.60;99.90
23385;DHT22;11865;45.394;10.978;2022-11-20T00:58:42;8.70;99.90
23385;DHT22;11865;45.394;10.978;2022-11-20T01:01:28;8.70;99.90
23385;DHT22;11865;45.394;10.978;2022-11-20T01:03:58;8.60;99.90
23385;DHT22;11865;45.394;10.978;2022-11-20T01:06:32;8.60;99.90
23385;DHT22;11865;45.394;10.978;2022-11-20T01:09:03;8.60;99.90
23385;DHT22;11865;45.394;10.978;2022-11-20T01:11:33;8.60;99.90
23385;DHT22;11865;45.394;10.978;2022-11-20T01:14:03;8.70;99.90
23385;DHT22;11865;45.394;10.978;2022-11-20T01:16:33;8.70;99.90
23385;DHT22;11865;45.394;10.978;2022-11-20T01:19:03;8.60;99.90
23385;DHT22;11865;45.394;10.978;2022-11-20T01:21:36;8.60;99.90
23385;DHT22;11865;45.394;10.978;2022-11-20T01:24:05;8.60;99.90
23385;DHT22;11865;45.394;10.978;2022-11-20T01:26:35;8.60;99.90
23385;DHT22;11865;45.394;10.978;2022-11-20T01:29:04;8.70;99.90
23385;DHT22;11865;45.394;10.978;2022-11-20T01:31:35;8.70;99.90
23385;DHT22;11865;45.394;10.978;2022-11-20T01:34:05;8.70;99.90
23385;DHT22;11865;45.394;10.978;2022-11-20T01:36:34;8.70;99.90
23385;DHT22;11865;45.394;10.978;2022-11-20T01:39:10;8.70;99.90
23385;DHT22;11865;45.394;10.978;2022-11-20T01:41:37;8.60;99.90
23385;DHT22;11865;45.394;10.978;2022-11-20T01:44:54;8.60;99.90
23385;DHT22;11865;45.394;10.978;2022-11-20T01:50:14;8.50;99.90
23385;DHT22;11865;45.394;10.978;2022-11-20T01:53:04;8.40;99.90
23385;DHT22;11865;45.394;10.978;2022-11-20T01:55:35;8.40;99.90
23385;DHT22;11865;45.394;10.978;2022-11-20T01:58:04;8.20;99.90
23385;DHT22;11865;45.394;10.978;2022-11-20T02:00:32;8.20;99.90
23385;DHT22;11865;45.394;10.978;2022-11-20T02:03:07;8.10;99.90
23385;DHT22;11865;45.394;10.978;2022-11-20T02:05:43;7.80;99.90
23385;DHT22;11865;45.394;10.978;2022-11-20T02:08:12;7.50;99.90
23385;DHT22;11865;45.394;10.978;2022-11-20T02:10:39;7.20;99.90
23385;DHT22;11865;45.394;10.978;2022-11-20T02:13:07;7.10;99.90
23385;DHT22;11865;45.394;10.978;2022-11-20T02:15:54;6.90;99.90
23385;DHT22;11865;45.394;10.978;2022-11-20T02:18:22;6.80;99.90
23385;DHT22;11865;45.394;10.978;2022-11-20T02:20:54;6.80;99.90
23385;DHT22;11865;45.394;10.978;2022-11-20T02:26:01;6.60;99.90
23385;DHT22;11865;45.394;10.978;2022-11-20T02:28:30;6.60;99.90
23385;DHT22;11865;45.394;10.978;2022-11-20T02:30:58;6.50;99.90
23385;DHT22;11865;45.394;10.978;2022-11-20T02:33:25;6.30;99.90
23385;DHT22;11865;45.394;10.978;2022-11-20T02:35:53;6.30;99.90
23385;DHT22;11865;45.394;10.978;2022-11-20T02:38:20;6.30;99.90
23385;DHT22;11865;45.394;10.978;2022-11-20T02:40:48;6.10;99.90
23385;DHT22;11865;45.394;10.978;2022-11-20T02:43:22;6.00;99.90
23385;DHT22;11865;45.394;10.978;2022-11-20T02:45:50;6.00;99.90
23385;DHT22;11865;45.394;10.978;2022-11-20T02:48:17;6.00;99.90
23385;DHT22;11865;45.394;10.978;2022-11-20T02:50:45;6.00;99.90
23385;DHT22;11865;45.394;10.978;2022-11-20T02:53:12;6.00;99.90
23385;DHT22;11865;45.394;10.978;2022-11-20T02:55:39;6.00;99.90
23385;DHT22;11865;45.394;10.978;2022-11-20T02:58:07;5.90;99.90
23385;DHT22;11865;45.394;10.978;2022-11-20T03:00:35;6.00;99.90
23385;DHT22;11865;45.394;10.978;2022-11-20T03:03:02;5.90;99.90
23385;DHT22;11865;45.394;10.978;2022-11-20T03:05:30;5.80;99.90
23385;DHT22;11865;45.394;10.978;2022-11-20T03:07:57;5.70;99.90
23385;DHT22;11865;45.394;10.978;2022-11-20T03:10:25;5.70;99.90
23385;DHT22;11865;45.394;10.978;2022-11-20T03:12:55;5.70;99.90
23385;DHT22;11865;45.394;10.978;2022-11-20T03:15:23;5.70;99.90
23385;DHT22;11865;45.394;10.978;2022-11-20T03:17:54;5.50;99.90
23385;DHT22;11865;45.394;10.978;2022-11-20T03:20:22;5.80;99.90
23385;DHT22;11865;45.394;10.978;2022-11-20T03:22:50;5.90;99.90
23385;DHT22;11865;45.394;10.978;2022-11-20T03:25:17;5.90;99.90
23385;DHT22;11865;45.394;10.978;2022-11-20T03:27:45;5.70;99.90
23385;DHT22;11865;45.394;10.978;2022-11-20T03:30:13;5.80;99.90
23385;DHT22;11865;45.394;10.978;2022-11-20T03:32:41;5.70;99.90
23385;DHT22;11865;45.394;10.978;2022-11-20T03:35:09;5.80;99.90
23385;DHT22;11865;45.394;10.978;2022-11-20T03:37:36;5.90;99.90
23385;DHT22;11865;45.394;10.978;2022-11-20T03:40:04;5.80;99.90
23385;DHT22;11865;45.394;10.978;2022-11-20T03:42:32;5.60;99.90
23385;DHT22;11865;45.394;10.978;2022-11-20T03:45:16;5.70;99.90
23385;DHT22;11865;45.394;10.978;2022-11-20T03:47:45;5.60;99.90
23385;DHT22;11865;45.394;10.978;2022-11-20T03:50:13;5.60;99.90
23385;DHT22;11865;45.394;10.978;2022-11-20T03:52:41;5.60;99.90
23385;DHT22;11865;45.394;10.978;2022-11-20T03:55:09;5.50;99.90
23385;DHT22;11865;45.394;10.978;2022-11-20T03:57:36;5.40;99.90
23385;DHT22;11865;45.394;10.978;2022-11-20T04:00:04;5.30;99.90
23385;DHT22;11865;45.394;10.978;2022-11-20T04:02:32;5.20;99.90
23385;DHT22;11865;45.394;10.978;2022-11-20T04:04:59;5.30;99.90
23385;DHT22;11865;45.394;10.978;2022-11-20T04:07:27;5.40;99.90
23385;DHT22;11865;45.394;10.978;2022-11-20T04:09:54;5.50;99.90
23385;DHT22;11865;45.394;10.978;2022-11-20T04:12:22;5.50;99.90
23385;DHT22;11865;45.394;10.978;2022-11-20T04:14:49;5.40;99.90
23385;DHT22;11865;45.394;10.978;2022-11-20T04:17:16;5.50;99.90
23385;DHT22;11865;45.394;10.978;2022-11-20T04:19:44;5.30;99.90
23385;DHT22;11865;45.394;10.978;2022-11-20T04:22:11;5.20;99.90
23385;DHT22;11865;45.394;10.978;2022-11-20T04:24:39;5.30;99.90
23385;DHT22;11865;45.394;10.978;2022-11-20T04:27:06;5.40;99.90
23385;DHT22;11865;45.394;10.978;2022-11-20T04:29:36;5.40;99.90
23385;DHT22;11865;45.394;10.978;2022-11-20T04:32:04;5.30;99.90
23385;DHT22;11865;45.394;10.978;2022-11-20T04:34:31;5.30;99.90
23385;DHT22;11865;45.394;10.978;2022-11-20T04:37:00;5.30;99.90
23385;DHT22;11865;45.394;10.978;2022-11-20T04:39:27;5.20;99.90
23385;DHT22;11865;45.394;10.978;2022-11-20T04:41:55;5.00;99.90
23385;DHT22;11865;45.394;10.978;2022-11-20T04:44:40;5.20;99.90
23385;DHT22;11865;45.394;10.978;2022-11-20T04:47:08;5.10;99.90
23385;DHT22;11865;45.394;10.978;2022-11-20T04:49:35;5.10;99.90
23385;DHT22;11865;45.394;10.978;2022-11-20T04:52:03;4.80;99.90
23385;DHT22;11865;45.394;10.978;2022-11-20T04:54:30;5.00;99.90
23385;DHT22;11865;45.394;10.978;2022-11-20T04:56:57;5.20;99.90
23385;DHT22;11865;45.394;10.978;2022-11-20T04:59:25;5.30;99.90
23385;DHT22;11865;45.394;10.978;2022-11-20T05:01:52;5.40;99.90
23385;DHT22;11865;45.394;10.978;2022-11-20T05:04:20;5.50;99.90
23385;DHT22;11865;45.394;10.978;2022-11-20T05:06:48;5.20;99.90
23385;DHT22;11865;45.394;10.978;2022-11-20T05:09:16;4.90;99.90
23385;DHT22;11865;45.394;10.978;2022-11-20T05:11:43;4.70;99.90
23385;DHT22;11865;45.394;10.978;2022-11-20T05:14:17;4.70;99.90
23385;DHT22;11865;45.394;10.978;2022-11-20T05:16:44;4.50;99.90
23385;DHT22;11865;45.394;10.978;2022-11-20T05:19:12;4.90;99.90
23385;DHT22;11865;45.394;10.978;2022-11-20T05:21:39;5.10;99.90
23385;DHT22;11865;45.394;10.978;2022-11-20T05:24:07;5.00;99.90
23385;DHT22;11865;45.394;10.978;2022-11-20T05:26:34;4.60;99.90
23385;DHT22;11865;45.394;10.978;2022-11-20T05:29:02;4.50;99.90
23385;DHT22;11865;45.394;10.978;2022-11-20T05:31:29;4.70;99.90
23385;DHT22;11865;45.394;10.978;2022-11-20T05:33:57;4.50;99.90
23385;DHT22;11865;45.394;10.978;2022-11-20T05:36:25;4.50;99.90
23385;DHT22;11865;45.394;10.978;2022-11-20T05:38:52;4.60;99.90
23385;DHT22;11865;45.394;10.978;2022-11-20T05:41:27;4.60;99.90
23385;DHT22;11865;45.394;10.978;2022-11-20T05:43:56;4.40;99.90
23385;DHT22;11865;45.394;10.978;2022-11-20T05:46:24;4.50;99.90
23385;DHT22;11865;45.394;10.978;2022-11-20T05:48:56;4.30;99.90
23385;DHT22;11865;45.394;10.978;2022-11-20T05:51:25;4.20;99.90
23385;DHT22;11865;45.394;10.978;2022-11-20T05:53:52;4.20;99.90
23385;DHT22;11865;45.394;10.978;2022-11-20T05:56:21;4.20;99.90
23385;DHT22;11865;45.394;10.978;2022-11-20T05:58:49;3.90;99.90
23385;DHT22;11865;45.394;10.978;2022-11-20T06:01:22;3.70;99.90
23385;DHT22;11865;45.394;10.978;2022-11-20T06:03:50;3.90;99.90
23385;DHT22;11865;45.394;10.978;2022-11-20T06:06:19;4.00;99.90
23385;DHT22;11865;45.394;10.978;2022-11-20T06:08:47;3.90;99.90
23385;DHT22;11865;45.394;10.978;2022-11-20T06:11:16;3.80;99.90
23385;DHT22;11865;45.394;10.978;2022-11-20T06:13:44;3.70;99.90
23385;DHT22;11865;45.394;10.978;2022-11-20T06:16:15;3.70;99.90
23385;DHT22;11865;45.394;10.978;2022-11-20T06:18:43;4.10;99.90
23385;DHT22;11865;45.394;10.978;2022-11-20T06:23:39;4.20;99.90
23385;DHT22;11865;45.394;10.978;2022-11-20T06:26:12;4.00;99.90
23385;DHT22;11865;45.394;10.978;2022-11-20T06:28:39;4.00;99.90
23385;DHT22;11865;45.394;10.978;2022-11-20T06:31:10;4.20;99.90
23385;DHT22;11865;45.394;10.978;2022-11-20T06:33:38;4.10;99.90
23385;DHT22;11865;45.394;10.978;2022-11-20T06:36:06;3.90;99.90
23385;DHT22;11865;45.394;10.978;2022-11-20T06:38:38;4.00;99.90
23385;DHT22;11865;45.394;10.978;2022-11-20T06:41:07;4.10;99.90
23385;DHT22;11865;45.394;10.978;2022-11-20T06:43:34;4.30;99.90
23385;DHT22;11865;45.394;10.978;2022-11-20T06:46:02;4.20;99.90
23385;DHT22;11865;45.394;10.978;2022-11-20T06:48:30;4.60;99.90
23385;DHT22;11865;45.394;10.978;2022-11-20T06:50:58;5.00;99.90
23385;DHT22;11865;45.394;10.978;2022-11-20T06:53:25;5.00;99.90
23385;DHT22;11865;45.394;10.978;2022-11-20T06:55:55;4.80;99.90
23385;DHT22;11865;45.394;10.978;2022-11-20T06:58:27;4.90;99.90
23385;DHT22;11865;45.394;10.978;2022-11-20T07:00:59;4.80;99.90
23385;DHT22;11865;45.394;10.978;2022-11-20T07:03:27;4.70;99.90
23385;DHT22;11865;45.394;10.978;2022-11-20T07:08:23;5.50;99.90
23385;DHT22;11865;45.394;10.978;2022-11-20T07:10:51;5.70;99.90
23385;DHT22;11865;45.394;10.978;2022-11-20T07:13:19;5.80;99.90
23385;DHT22;11865;45.394;10.978;2022-11-20T07:15:46;6.00;99.90
23385;DHT22;11865;45.394;10.978;2022-11-20T07:18:14;6.10;99.90
23385;DHT22;11865;45.394;10.978;2022-11-20T07:20:41;5.90;99.90
23385;DHT22;11865;45.394;10.978;2022-11-20T07:23:08;6.10;99.90
23385;DHT22;11865;45.394;10.978;2022-11-20T07:25:36;6.10;99.90
23385;DHT22;11865;45.394;10.978;2022-11-20T07:28:03;6.30;99.90
23385;DHT22;11865;45.394;10.978;2022-11-20T07:30:31;6.40;99.90
23385;DHT22;11865;45.394;10.978;2022-11-20T07:32:59;6.60;99.90
23385;DHT22;11865;45.394;10.978;2022-11-20T07:35:26;6.70;99.90
23385;DHT22;11865;45.394;10.978;2022-11-20T07:37:53;6.80;99.90
23385;DHT22;11865;45.394;10.978;2022-11-20T07:40:21;6.90;99.90
23385;DHT22;11865;45.394;10.978;2022-11-20T07:42:52;7.00;99.90
23385;DHT22;11865;45.394;10.978;2022-11-20T07:45:22;7.20;99.90
23385;DHT22;11865;45.394;10.978;2022-11-20T07:47:50;7.30;99.90
23385;DHT22;11865;45.394;10.978;2022-11-20T07:50:18;7.40;99.90
23385;DHT22;11865;45.394;10.978;2022-11-20T07:52:46;7.50;99.90
23385;DHT22;11865;45.394;10.978;2022-11-20T07:55:14;7.60;99.90
23385;DHT22;11865;45.394;10.978;2022-11-20T07:57:41;7.80;99.90
23385;DHT22;11865;45.394;10.978;2022-11-20T08:00:10;7.90;99.90
23385;DHT22;11865;45.394;10.978;2022-11-20T08:02:39;8.00;99.90
23385;DHT22;11865;45.394;10.978;2022-11-20T08:05:08;8.10;99.90
23385;DHT22;11865;45.394;10.978;2022-11-20T08:07:40;8.10;99.90
23385;DHT22;11865;45.394;10.978;2022-11-20T08:10:09;8.10;99.90
23385;DHT22;11865;45.394;10.978;2022-11-20T08:12:47;8.20;99.90
23385;DHT22;11865;45.394;10.978;2022-11-20T08:15:33;8.30;99.90
23385;DHT22;11865;45.394;10.978;2022-11-20T08:18:09;8.50;99.90
23385;DHT22;11865;45.394;10.978;2022-11-20T08:21:01;8.50;99.90
23385;DHT22;11865;45.394;10.978;2022-11-20T08:23:29;8.60;99.90
23385;DHT22;11865;45.394;10.978;2022-11-20T08:25:57;8.70;99.90
23385;DHT22;11865;45.394;10.978;2022-11-20T08:28:24;8.90;99.90
23385;DHT22;11865;45.394;10.978;2022-11-20T08:30:58;9.10;99.90
23385;DHT22;11865;45.394;10.978;2022-11-20T08:33:26;9.20;99.90
23385;DHT22;11865;45.394;10.978;2022-11-20T08:36:01;9.30;99.90
23385;DHT22;11865;45.394;10.978;2022-11-20T08:38:30;9.20;99.90
23385;DHT22;11865;45.394;10.978;2022-11-20T08:40:59;9.40;99.90
23385;DHT22;11865;45.394;10.978;2022-11-20T08:43:45;9.50;99.90
23385;DHT22;11865;45.394;10.978;2022-11-20T08:46:12;9.60;99.90
23385;DHT22;11865;45.394;10.978;2022-11-20T08:48:40;9.70;99.90
23385;DHT22;11865;45.394;10.978;2022-11-20T08:51:07;9.80;99.90
23385;DHT22;11865;45.394;10.978;2022-11-20T08:53:35;9.90;99.90
23385;DHT22;11865;45.394;10.978;2022-11-20T08:56:03;10.00;99.90
23385;DHT22;11865;45.394;10.978;2022-11-20T08:58:30;10.00;99.90
23385;DHT22;11865;45.394;10.978;2022-11-20T09:01:19;10.10;99.90
23385;DHT22;11865;45.394;10.978;2022-11-20T09:03:47;10.20;99.90
23385;DHT22;11865;45.394;10.978;2022-11-20T09:06:14;10.20;99.90
23385;DHT22;11865;45.394;10.978;2022-11-20T09:08:42;10.30;99.90
23385;DHT22;11865;45.394;10.978;2022-11-20T09:11:10;10.30;99.90
23385;DHT22;11865;45.394;10.978;2022-11-20T09:13:37;10.40;99.90
23385;DHT22;11865;45.394;10.978;2022-11-20T09:16:07;10.50;99.90
23385;DHT22;11865;45.394;10.978;2022-11-20T09:18:36;10.50;99.90
23385;DHT22;11865;45.394;10.978;2022-11-20T09:21:06;10.60;99.90
23385;DHT22;11865;45.394;10.978;2022-11-20T09:23:35;10.60;99.90
23385;DHT22;11865;45.394;10.978;2022-11-20T09:26:11;10.70;99.90
23385;DHT22;11865;45.394;10.978;2022-11-20T09:28:39;10.70;99.90
23385;DHT22;11865;45.394;10.978;2022-11-20T09:31:09;10.70;99.90
23385;DHT22;11865;45.394;10.978;2022-11-20T09:33:37;10.80;99.90
23385;DHT22;11865;45.394;10.978;2022-11-20T09:36:05;10.80;99.90
23385;DHT22;11865;45.394;10.978;2022-11-20T09:38:32;11.00;99.90
23385;DHT22;11865;45.394;10.978;2022-11-20T09:41:03;11.10;99.90
23385;DHT22;11865;45.394;10.978;2022-11-20T09:46:22;11.20;99.90
23385;DHT22;11865;45.394;10.978;2022-11-20T09:52:00;11.40;99.90
23385;DHT22;11865;45.394;10.978;2022-11-20T09:54:38;11.50;99.90
23385;DHT22;11865;45.394;10.978;2022-11-20T09:57:19;11.60;99.90
23385;DHT22;11865;45.394;10.978;2022-11-20T09:59:56;11.50;99.90
23385;DHT22;11865;45.394;10.978;2022-11-20T10:10:45;12.10;99.90
23385;DHT22;11865;45.394;10.978;2022-11-20T10:22:04;12.30;99.90
23385;DHT22;11865;45.394;10.978;2022-11-20T10:24:18;12.30;99.90
23385;DHT22;11865;45.394;10.978;2022-11-20T10:30:00;12.40;99.90
23385;DHT22;11865;45.394;10.978;2022-11-20T10:33:05;12.40;99.90
23385;DHT22;11865;45.394;10.978;2022-11-20T10:35:44;12.50;99.90
23385;DHT22;11865;45.394;10.978;2022-11-20T10:38:35;12.60;99.90
23385;DHT22;11865;45.394;10.978;2022-11-20T10:41:06;12.50;99.90
23385;DHT22;11865;45.394;10.978;2022-11-20T10:44:03;12.70;99.90
23385;DHT22;11865;45.394;10.978;2022-11-20T10:46:39;12.70;99.90
23385;DHT22;11865;45.394;10.978;2022-11-20T10:49:25;12.70;99.90
23385;DHT22;11865;45.394;10.978;2022-11-20T10:52:04;12.70;99.90
23385;DHT22;11865;45.394;10.978;2022-11-20T10:57:45;12.70;99.90
23385;DHT22;11865;45.394;10.978;2022-11-20T11:00:07;12.80;99.90
23385;DHT22;11865;45.394;10.978;2022-11-20T11:03:02;12.80;99.90
23385;DHT22;11865;45.394;10.978;2022-11-20T11:05:50;12.80;99.90
23385;DHT22;11865;45.394;10.978;2022-11-20T11:08:19;12.90;99.90
23385;DHT22;11865;45.394;10.978;2022-11-20T11:10:55;13.00;99.90
23385;DHT22;11865;45.394;10.978;2022-11-20T11:13:27;13.10;99.90
23385;DHT22;11865;45.394;10.978;2022-11-20T11:15:56;13.10;99.90
23385;DHT22;11865;45.394;10.978;2022-11-20T11:18:29;13.10;99.90
23385;DHT22;11865;45.394;10.978;2022-11-20T11:21:04;13.10;99.90
23385;DHT22;11865;45.394;10.978;2022-11-20T11:26:07;13.10;99.90
23385;DHT22;11865;45.394;10.978;2022-11-20T11:28:59;13.00;99.90
23385;DHT22;11865;45.394;10.978;2022-11-20T11:31:32;13.10;99.90
23385;DHT22;11865;45.394;10.978;2022-11-20T11:34:14;13.20;99.90
23385;DHT22;11865;45.394;10.978;2022-11-20T11:36:42;13.20;99.90
23385;DHT22;11865;45.394;10.978;2022-11-20T11:39:18;13.20;99.90
23385;DHT22;11865;45.394;10.978;2022-11-20T11:41:48;13.20;99.90
23385;DHT22;11865;45.394;10.978;2022-11-20T11:44:32;13.20;99.90
23385;DHT22;11865;45.394;10.978;2022-11-20T11:50:23;13.20;99.90
23385;DHT22;11865;45.394;10.978;2022-11-20T11:53:14;13.30;99.90
23385;DHT22;11865;45.394;10.978;2022-11-20T11:56:07;13.30;99.90
23385;DHT22;11865;45.394;10.978;2022-11-20T12:01:32;13.40;99.90
23385;DHT22;11865;45.394;10.978;2022-11-20T12:07:31;13.30;99.90
23385;DHT22;11865;45.394;10.978;2022-11-20T12:12:54;13.50;99.90
23385;DHT22;11865;45.394;10.978;2022-11-20T12:15:28;13.40;99.90
23385;DHT22;11865;45.394;10.978;2022-11-20T12:17:56;13.50;99.90
23385;DHT22;11865;45.394;10.978;2022-11-20T12:20:29;13.40;99.90
23385;DHT22;11865;45.394;10.978;2022-11-20T12:23:10;13.50;99.90
23385;DHT22;11865;45.394;10.978;2022-11-20T12:25:43;13.40;99.90
23385;DHT22;11865;45.394;10.978;2022-11-20T12:31:30;13.40;99.90
23385;DHT22;11865;45.394;10.978;2022-11-20T12:34:12;13.50;99.90
23385;DHT22;11865;45.394;10.978;2022-11-20T12:37:06;13.50;99.90
23385;DHT22;11865;45.394;10.978;2022-11-20T12:39:43;13.50;99.90
23385;DHT22;11865;45.394;10.978;2022-11-20T12:48:30;13.50;99.90
23385;DHT22;11865;45.394;10.978;2022-11-20T12:54:11;13.50;99.90
23385;DHT22;11865;45.394;10.978;2022-11-20T13:05:41;13.40;99.90
23385;DHT22;11865;45.394;10.978;2022-11-20T13:08:52;13.40;99.90
23385;DHT22;11865;45.394;10.978;2022-11-20T13:16:33;13.50;99.90
23385;DHT22;11865;45.394;10.978;2022-11-20T13:19:04;13.40;99.90
23385;DHT22;11865;45.394;10.978;2022-11-20T13:21:40;13.30;99.90
23385;DHT22;11865;45.394;10.978;2022-11-20T13:24:20;13.40;99.90
23385;DHT22;11865;45.394;10.978;2022-11-20T13:27:19;13.20;99.90
23385;DHT22;11865;45.394;10.978;2022-11-20T13:30:00;13.30;99.90
23385;DHT22;11865;45.394;10.978;2022-11-20T13:32:28;13.30;99.90
23385;DHT22;11865;45.394;10.978;2022-11-20T13:35:01;13.20;99.90
23385;DHT22;11865;45.394;10.978;2022-11-20T13:37:35;13.10;99.90
23385;DHT22;11865;45.394;10.978;2022-11-20T13:45:55;13.20;99.90
23385;DHT22;11865;45.394;10.978;2022-11-20T13:48:25;13.20;99.90
23385;DHT22;11865;45.394;10.978;2022-11-20T13:53:37;13.10;99.90
23385;DHT22;11865;45.394;10.978;2022-11-20T14:02:01;13.10;99.90
23385;DHT22;11865;45.394;10.978;2022-11-20T14:04:36;13.10;99.90
23385;DHT22;11865;45.394;10.978;2022-11-20T14:07:06;13.00;99.90
23385;DHT22;11865;45.394;10.978;2022-11-20T14:09:34;13.00;99.90
23385;DHT22;11865;45.394;10.978;2022-11-20T14:12:02;13.00;99.90
23385;DHT22;11865;45.394;10.978;2022-11-20T14:14:33;13.00;99.90
23385;DHT22;11865;45.394;10.978;2022-11-20T14:17:20;13.00;99.90
23385;DHT22;11865;45.394;10.978;2022-11-20T14:19:50;12.90;99.90
23385;DHT22;11865;45.394;10.978;2022-11-20T14:22:28;12.80;99.90
23385;DHT22;11865;45.394;10.978;2022-11-20T14:27:48;12.80;99.90
23385;DHT22;11865;45.394;10.978;2022-11-20T14:30:22;12.70;99.90
23385;DHT22;11865;45.394;10.978;2022-11-20T14:32:51;12.70;99.90
23385;DHT22;11865;45.394;10.978;2022-11-20T14:35:31;12.60;99.90
23385;DHT22;11865;45.394;10.978;2022-11-20T14:38:02;12.60;99.90
23385;DHT22;11865;45.394;10.978;2022-11-20T14:40:32;12.50;99.90
23385;DHT22;11865;45.394;10.978;2022-11-20T14:43:04;12.50;99.90
23385;DHT22;11865;45.394;10.978;2022-11-20T14:45:32;12.50;99.90
23385;DHT22;11865;45.394;10.978;2022-11-20T14:48:02;12.40;99.90
23385;DHT22;11865;45.394;10.978;2022-11-20T14:50:30;12.40;99.90
23385;DHT22;11865;45.394;10.978;2022-11-20T14:53:00;12.30;99.90
23385;DHT22;11865;45.394;10.978;2022-11-20T14:55:38;12.30;99.90
23385;DHT22;11865;45.394;10.978;2022-11-20T14:58:27;12.20;99.90
23385;DHT22;11865;45.394;10.978;2022-11-20T15:03:40;12.00;99.90
23385;DHT22;11865;45.394;10.978;2022-11-20T15:06:11;11.90;99.90
23385;DHT22;11865;45.394;10.978;2022-11-20T15:08:50;11.90;99.90
23385;DHT22;11865;45.394;10.978;2022-11-20T15:11:20;11.80;99.90
23385;DHT22;11865;45.394;10.978;2022-11-20T15:13:50;11.60;99.90
23385;DHT22;11865;45.394;10.978;2022-11-20T15:16:20;11.50;99.90
23385;DHT22;11865;45.394;10.978;2022-11-20T15:18:48;11.30;99.90
23385;DHT22;11865;45.394;10.978;2022-11-20T15:21:18;11.20;99.90
23385;DHT22;11865;45.394;10.978;2022-11-20T15:23:46;11.00;99.90
23385;DHT22;11865;45.394;10.978;2022-11-20T15:26:20;10.90;99.90
23385;DHT22;11865;45.394;10.978;2022-11-20T15:28:49;10.80;99.90
23385;DHT22;11865;45.394;10.978;2022-11-20T15:31:20;10.60;99.90
23385;DHT22;11865;45.394;10.978;2022-11-20T15:33:48;10.50;99.90
23385;DHT22;11865;45.394;10.978;2022-11-20T15:36:16;10.30;99.90
23385;DHT22;11865;45.394;10.978;2022-11-20T15:38:44;10.30;99.90
23385;DHT22;11865;45.394;10.978;2022-11-20T15:41:11;10.20;99.90
23385;DHT22;11865;45.394;10.978;2022-11-20T15:43:38;10.20;99.90
23385;DHT22;11865;45.394;10.978;2022-11-20T15:46:16;10.00;99.90
23385;DHT22;11865;45.394;10.978;2022-11-20T15:48:54;9.70;99.90
23385;DHT22;11865;45.394;10.978;2022-11-20T15:53:52;9.40;99.90
23385;DHT22;11865;45.394;10.978;2022-11-20T15:56:19;9.40;99.90
23385;DHT22;11865;45.394;10.978;2022-11-20T15:58:47;9.60;99.90
23385;DHT22;11865;45.394;10.978;2022-11-20T16:01:16;9.80;99.90
23385;DHT22;11865;45.394;10.978;2022-11-20T16:03:44;9.50;99.90
23385;DHT22;11865;45.394;10.978;2022-11-20T16:06:12;9.10;99.90
23385;DHT22;11865;45.394;10.978;2022-11-20T16:08:39;8.90;99.90
23385;DHT22;11865;45.394;10.978;2022-11-20T16:11:08;8.60;99.90
23385;DHT22;11865;45.394;10.978;2022-11-20T16:13:37;8.40;99.90
23385;DHT22;11865;45.394;10.978;2022-11-20T16:16:27;8.30;99.90
23385;DHT22;11865;45.394;10.978;2022-11-20T16:18:56;8.20;99.90
23385;DHT22;11865;45.394;10.978;2022-11-20T16:21:24;8.30;99.90
23385;DHT22;11865;45.394;10.978;2022-11-20T16:24:02;8.40;99.90
23385;DHT22;11865;45.394;10.978;2022-11-20T16:26:30;8.40;99.90
23385;DHT22;11865;45.394;10.978;2022-11-20T16:28:59;8.40;99.90
23385;DHT22;11865;45.394;10.978;2022-11-20T16:31:27;8.50;99.90
23385;DHT22;11865;45.394;10.978;2022-11-20T16:33:56;8.50;99.90
23385;DHT22;11865;45.394;10.978;2022-11-20T16:36:25;8.40;99.90
23385;DHT22;11865;45.394;10.978;2022-11-20T16:38:57;8.30;99.90
23385;DHT22;11865;45.394;10.978;2022-11-20T16:41:26;8.20;99.90
23385;DHT22;11865;45.394;10.978;2022-11-20T16:43:56;8.10;99.90
23385;DHT22;11865;45.394;10.978;2022-11-20T16:46:26;8.10;99.90
23385;DHT22;11865;45.394;10.978;2022-11-20T16:49:02;8.20;99.90
23385;DHT22;11865;45.394;10.978;2022-11-20T16:51:33;8.10;99.90
23385;DHT22;11865;45.394;10.978;2022-11-20T16:54:02;7.90;99.90
23385;DHT22;11865;45.394;10.978;2022-11-20T16:56:30;7.80;99.90
23385;DHT22;11865;45.394;10.978;2022-11-20T16:58:58;7.60;99.90
23385;DHT22;11865;45.394;10.978;2022-11-20T17:01:27;7.50;99.90
23385;DHT22;11865;45.394;10.978;2022-11-20T17:04:03;7.40;99.90
23385;DHT22;11865;45.394;10.978;2022-11-20T17:06:33;7.40;99.90
23385;DHT22;11865;45.394;10.978;2022-11-20T17:09:02;7.40;99.90
23385;DHT22;11865;45.394;10.978;2022-11-20T17:11:30;7.50;99.90
23385;DHT22;11865;45.394;10.978;2022-11-20T17:13:58;8.00;99.90
23385;DHT22;11865;45.394;10.978;2022-11-20T17:16:35;8.40;99.90
23385;DHT22;11865;45.394;10.978;2022-11-20T17:19:03;8.20;99.90
23385;DHT22;11865;45.394;10.978;2022-11-20T17:21:32;7.70;99.90
23385;DHT22;11865;45.394;10.978;2022-11-20T17:24:07;7.30;99.90
23385;DHT22;11865;45.394;10.978;2022-11-20T17:26:37;7.20;99.90
23385;DHT22;11865;45.394;10.978;2022-11-20T17:29:11;7.10;99.90
23385;DHT22;11865;45.394;10.978;2022-11-20T17:31:39;7.00;99.90
23385;DHT22;11865;45.394;10.978;2022-11-20T17:34:09;6.90;99.90
23385;DHT22;11865;45.394;10.978;2022-11-20T17:36:37;6.90;99.90